createdAt,value
2019-02-06T00:01:15.799Z,1.26
2019-02-06T00:02:21.325Z,1.14
2019-02-06T00:04:19.725Z,1.22
2019-02-06T00:05:25.238Z,1.15
2019-02-06T00:07:23.621Z,1.15
2019-02-06T00:08:29.157Z,1.16
2019-02-06T00:10:27.554Z,0.98
2019-02-06T00:11:35.157Z,0.97
2019-02-06T00:13:31.484Z,1.02
2019-02-06T00:14:36.986Z,0.97
2019-02-06T00:16:35.369Z,0.96
2019-02-06T00:17:40.902Z,0.86
2019-02-06T00:19:39.296Z,0.86
2019-02-06T00:20:44.809Z,0.84
2019-02-06T00:22:43.199Z,0.84
2019-02-06T00:23:48.725Z,0.83
2019-02-06T00:25:47.130Z,0.83
2019-02-06T00:26:52.637Z,0.72
2019-02-06T00:28:51.042Z,0.79
2019-02-06T00:29:56.552Z,0.76
2019-02-06T00:31:54.937Z,0.73
2019-02-06T00:33:00.463Z,0.72
2019-02-06T00:34:58.865Z,0.70
2019-02-06T00:36:04.378Z,0.70
2019-02-06T00:38:05.218Z,0.65
2019-02-06T00:39:08.300Z,0.58
2019-02-06T00:41:06.700Z,0.60
2019-02-06T00:42:12.214Z,0.58
2019-02-06T00:44:10.613Z,0.60
2019-02-06T00:45:16.124Z,0.61
2019-02-06T00:47:14.518Z,0.53
2019-02-06T00:48:20.040Z,0.53
2019-02-06T00:50:18.444Z,0.51
2019-02-06T00:51:23.950Z,0.53
2019-02-06T00:53:22.361Z,0.47
2019-02-06T00:54:27.865Z,0.42
2019-02-06T00:56:26.258Z,0.44
2019-02-06T00:57:31.788Z,0.36
2019-02-06T00:59:30.197Z,0.31
2019-02-06T01:00:35.702Z,0.36
2019-02-06T01:02:34.092Z,0.24
2019-02-06T01:03:39.615Z,0.23
2019-02-06T01:05:38.924Z,0.31
2019-02-06T01:06:43.524Z,0.26
2019-02-06T01:08:41.938Z,0.36
2019-02-06T01:09:47.447Z,0.39
2019-02-06T01:11:45.832Z,0.35
2019-02-06T01:12:51.361Z,0.38
2019-02-06T01:14:49.754Z,0.41
2019-02-06T01:15:55.270Z,0.44
2019-02-06T01:17:53.672Z,0.41
2019-02-06T01:18:59.193Z,0.53
2019-02-06T01:20:57.604Z,0.55
2019-02-06T01:22:03.118Z,0.47
2019-02-06T01:24:01.511Z,0.39
2019-02-06T01:25:07.040Z,0.46
2019-02-06T01:27:05.424Z,0.65
2019-02-06T01:28:10.940Z,0.62
2019-02-06T01:30:09.385Z,0.65
2019-02-06T01:31:14.854Z,0.66
2019-02-06T01:33:13.364Z,0.75
2019-02-06T01:34:18.764Z,0.84
2019-02-06T01:36:17.152Z,0.80
2019-02-06T01:37:22.678Z,0.88
2019-02-06T01:39:21.077Z,0.88
2019-02-06T01:40:26.591Z,0.93
2019-02-06T01:42:24.983Z,1.02
2019-02-06T01:43:30.505Z,1.04
2019-02-06T01:45:28.915Z,1.08
2019-02-06T01:46:34.418Z,1.09
2019-02-06T01:48:32.799Z,1.16
2019-02-06T01:49:38.333Z,1.18
2019-02-06T01:51:36.853Z,1.15
2019-02-06T01:52:42.248Z,1.14
2019-02-06T01:54:40.648Z,1.24
2019-02-06T01:55:46.153Z,1.27
2019-02-06T01:57:44.541Z,1.23
2019-02-06T01:58:50.065Z,1.32
2019-02-06T02:00:48.467Z,1.41
2019-02-06T02:01:53.984Z,1.34
2019-02-06T02:03:52.371Z,1.40
2019-02-06T02:04:57.897Z,1.37
2019-02-06T02:06:56.299Z,1.40
2019-02-06T02:08:01.808Z,1.41
2019-02-06T02:10:00.211Z,1.44
2019-02-06T02:11:05.721Z,1.44
2019-02-06T02:13:04.127Z,1.42
2019-02-06T02:14:09.637Z,1.45
2019-02-06T02:16:08.029Z,1.42
2019-02-06T02:17:13.558Z,1.44
2019-02-06T02:19:11.957Z,1.59
2019-02-06T02:20:17.471Z,1.59
2019-02-06T02:22:15.967Z,1.58
2019-02-06T02:23:21.380Z,1.55
2019-02-06T02:25:19.843Z,1.63
2019-02-06T02:26:25.287Z,1.66
2019-02-06T02:28:23.693Z,1.60
2019-02-06T02:29:29.211Z,1.69
2019-02-06T02:31:27.591Z,1.63
2019-02-06T02:32:33.121Z,1.65
2019-02-06T02:34:31.534Z,1.70
2019-02-06T02:35:37.150Z,1.66
2019-02-06T02:37:35.434Z,1.68
2019-02-06T02:38:40.957Z,1.65
2019-02-06T02:40:39.390Z,1.73
2019-02-06T02:41:44.880Z,1.76
2019-02-06T02:43:43.259Z,1.72
2019-02-06T02:44:48.791Z,1.79
2019-02-06T02:46:47.193Z,1.79
2019-02-06T02:47:52.706Z,1.77
2019-02-06T02:49:51.108Z,1.70
2019-02-06T02:50:56.618Z,1.81
2019-02-06T02:52:55.050Z,1.80
2019-02-06T02:54:00.564Z,1.69
2019-02-06T02:55:58.949Z,1.86
2019-02-06T02:57:04.474Z,1.79
2019-02-06T02:59:02.894Z,1.76
2019-02-06T03:00:08.385Z,1.84
2019-02-06T03:02:06.778Z,1.79
2019-02-06T03:03:12.302Z,1.80
2019-02-06T03:05:10.706Z,1.81
2019-02-06T03:06:27.613Z,1.87
2019-02-06T03:08:14.607Z,1.81
2019-02-06T03:09:20.129Z,1.86
2019-02-06T03:11:18.539Z,1.81
2019-02-06T03:12:24.048Z,1.90
2019-02-06T03:14:22.435Z,1.84
2019-02-06T03:15:27.960Z,1.90
2019-02-06T03:18:57.941Z,1.81
2019-02-06T03:20:03.435Z,1.86
2019-02-06T03:22:01.843Z,1.93
2019-02-06T03:23:07.348Z,1.91
2019-02-06T03:25:05.739Z,1.93
2019-02-06T03:26:11.266Z,1.98
2019-02-06T03:28:09.672Z,1.95
2019-02-06T03:29:15.179Z,2.02
2019-02-06T03:31:13.753Z,2.07
2019-02-06T03:32:19.094Z,2.05
2019-02-06T03:34:17.499Z,1.99
2019-02-06T03:35:23.004Z,2.00
2019-02-06T03:37:21.394Z,2.07
2019-02-06T03:38:26.919Z,2.05
2019-02-06T03:40:26.362Z,2.12
2019-02-06T03:41:31.831Z,2.10
2019-02-06T03:43:30.217Z,2.09
2019-02-06T03:44:35.743Z,2.09
2019-02-06T03:46:34.146Z,2.12
2019-02-06T03:47:39.668Z,2.10
2019-02-06T03:49:38.050Z,2.03
2019-02-06T03:50:43.580Z,2.12
2019-02-06T03:52:41.979Z,2.12
2019-02-06T03:53:47.528Z,2.12
2019-02-06T03:55:45.879Z,2.10
2019-02-06T03:56:51.407Z,2.16
2019-02-06T03:58:49.803Z,2.14
2019-02-06T03:59:55.320Z,2.16
2019-02-06T04:01:53.725Z,2.10
2019-02-06T04:02:59.232Z,2.12
2019-02-06T04:04:57.623Z,2.16
2019-02-06T04:06:03.153Z,2.17
2019-02-06T04:08:01.567Z,2.24
2019-02-06T04:09:07.063Z,2.18
2019-02-06T04:11:05.455Z,2.16
2019-02-06T04:12:10.979Z,2.10
2019-02-06T04:14:09.399Z,2.17
2019-02-06T04:15:14.906Z,2.18
2019-02-06T04:17:13.292Z,2.23
2019-02-06T04:18:18.817Z,2.18
2019-02-06T04:20:17.223Z,2.21
2019-02-06T04:21:22.734Z,2.09
2019-02-06T04:23:21.130Z,2.30
2019-02-06T04:24:26.653Z,2.18
2019-02-06T04:26:25.063Z,2.14
2019-02-06T04:27:30.569Z,2.24
2019-02-06T04:29:28.969Z,2.21
2019-02-06T04:30:34.493Z,2.17
2019-02-06T04:32:32.901Z,2.21
2019-02-06T04:33:38.409Z,2.14
2019-02-06T04:35:36.797Z,2.24
2019-02-06T04:36:42.322Z,2.12
2019-02-06T04:38:40.721Z,2.14
2019-02-06T04:39:46.238Z,2.12
2019-02-06T04:41:44.629Z,2.14
2019-02-06T04:42:50.155Z,2.12
2019-02-06T04:44:48.554Z,2.14
2019-02-06T04:45:54.069Z,2.12
2019-02-06T04:47:52.473Z,2.16
2019-02-06T04:48:57.987Z,2.12
2019-02-06T04:50:56.376Z,2.09
2019-02-06T04:52:01.901Z,2.12
2019-02-06T04:54:00.299Z,2.14
2019-02-06T04:55:05.821Z,2.10
2019-02-06T04:57:04.204Z,2.16
2019-02-06T04:58:09.731Z,2.17
2019-02-06T05:00:08.144Z,2.16
2019-02-06T05:01:13.704Z,2.16
2019-02-06T05:03:12.033Z,2.09
2019-02-06T05:04:17.557Z,2.14
2019-02-06T05:06:15.962Z,2.12
2019-02-06T05:07:21.477Z,2.16
2019-02-06T05:09:20.356Z,2.10
2019-02-06T05:10:25.877Z,2.12
2019-02-06T05:12:24.289Z,2.14
2019-02-06T05:13:29.797Z,2.12
2019-02-06T05:15:28.209Z,2.12
2019-02-06T05:16:33.729Z,2.20
2019-02-06T05:18:32.136Z,2.14
2019-02-06T05:19:37.650Z,2.12
2019-02-06T05:21:36.033Z,2.09
2019-02-06T05:22:41.562Z,2.16
2019-02-06T05:24:39.964Z,2.16
2019-02-06T05:25:45.473Z,2.14
2019-02-06T05:27:43.863Z,2.16
2019-02-06T05:28:49.388Z,2.09
2019-02-06T05:30:47.797Z,2.12
2019-02-06T05:31:53.301Z,2.10
2019-02-06T05:33:51.691Z,2.17
2019-02-06T05:34:57.215Z,2.10
2019-02-06T05:36:55.617Z,2.10
2019-02-06T05:38:01.137Z,2.10
2019-02-06T05:39:59.519Z,2.18
2019-02-06T05:41:05.044Z,2.18
2019-02-06T05:43:03.445Z,2.17
2019-02-06T05:44:08.957Z,2.14
2019-02-06T05:46:07.351Z,2.20
2019-02-06T05:47:12.876Z,2.25
2019-02-06T05:49:11.292Z,2.21
2019-02-06T05:50:16.793Z,2.20
2019-02-06T05:52:15.204Z,2.23
2019-02-06T05:53:20.705Z,2.28
2019-02-06T05:55:19.097Z,2.28
2019-02-06T05:56:24.621Z,2.28
2019-02-06T05:58:23.064Z,2.17
2019-02-06T05:59:28.563Z,2.16
2019-02-06T06:01:26.957Z,2.14
2019-02-06T06:02:32.479Z,2.18
2019-02-06T06:04:30.888Z,2.16
2019-02-06T06:05:36.402Z,2.16
2019-02-06T06:07:44.661Z,2.17
2019-02-06T06:08:40.319Z,2.17
2019-02-06T06:10:38.711Z,2.16
2019-02-06T06:11:44.241Z,2.09
2019-02-06T06:13:42.613Z,2.10
2019-02-06T06:14:48.138Z,2.12
2019-02-06T06:16:46.551Z,2.17
2019-02-06T06:17:52.055Z,2.16
2019-02-06T06:19:50.451Z,2.10
2019-02-06T06:20:55.976Z,2.09
2019-02-06T06:22:54.385Z,2.09
2019-02-06T06:23:59.897Z,2.09
2019-02-06T06:25:58.291Z,2.10
2019-02-06T06:27:03.819Z,2.10
2019-02-06T06:29:02.218Z,2.16
2019-02-06T06:30:07.735Z,2.16
2019-02-06T06:32:06.234Z,2.10
2019-02-06T06:33:11.673Z,2.10
2019-02-06T06:35:10.746Z,2.14
2019-02-06T06:36:15.578Z,2.05
2019-02-06T06:38:13.960Z,2.09
2019-02-06T06:39:19.490Z,2.09
2019-02-06T06:41:17.895Z,2.16
2019-02-06T06:42:24.289Z,2.14
2019-02-06T06:44:21.787Z,2.10
2019-02-06T06:45:27.321Z,2.10
2019-02-06T06:47:25.716Z,2.25
2019-02-06T06:48:31.232Z,2.16
2019-02-06T06:50:29.648Z,2.18
2019-02-06T06:51:35.145Z,2.24
2019-02-06T06:53:33.533Z,2.27
2019-02-06T06:54:39.058Z,2.30
2019-02-06T06:56:37.486Z,2.27
2019-02-06T06:57:42.971Z,2.24
2019-02-06T06:59:41.356Z,2.25
2019-02-06T07:00:46.888Z,2.24
2019-02-06T07:02:45.298Z,2.31
2019-02-06T07:03:50.805Z,2.27
2019-02-06T07:05:49.191Z,2.27
2019-02-06T07:06:54.718Z,2.34
2019-02-06T07:08:53.114Z,2.30
2019-02-06T07:09:58.631Z,2.41
2019-02-06T07:11:57.015Z,2.41
2019-02-06T07:13:02.542Z,2.34
2019-02-06T07:15:00.944Z,2.38
2019-02-06T07:16:06.461Z,2.41
2019-02-06T07:18:04.862Z,2.31
2019-02-06T07:19:10.374Z,2.39
2019-02-06T07:21:08.763Z,2.31
2019-02-06T07:22:14.287Z,2.38
2019-02-06T07:24:12.685Z,2.31
2019-02-06T07:25:18.199Z,2.35
2019-02-06T07:27:16.587Z,2.38
2019-02-06T07:28:22.109Z,2.35
2019-02-06T07:30:20.509Z,2.39
2019-02-06T07:31:26.023Z,2.30
2019-02-06T07:33:24.424Z,2.39
2019-02-06T07:34:29.939Z,2.39
2019-02-06T07:36:28.334Z,2.34
2019-02-06T07:37:33.860Z,2.30
2019-02-06T07:39:32.265Z,2.35
2019-02-06T07:40:37.782Z,2.39
2019-02-06T07:42:36.167Z,2.43
2019-02-06T07:43:41.697Z,2.49
2019-02-06T07:45:40.092Z,2.43
2019-02-06T07:46:45.605Z,2.49
2019-02-06T07:48:44.014Z,2.52
2019-02-06T07:49:49.523Z,2.42
2019-02-06T07:51:50.405Z,2.53
2019-02-06T07:52:53.444Z,2.52
2019-02-06T07:54:51.939Z,2.54
2019-02-06T07:55:57.355Z,2.57
2019-02-06T07:57:55.743Z,2.57
2019-02-06T07:59:01.270Z,2.56
2019-02-06T08:00:59.676Z,2.64
2019-02-06T08:02:05.187Z,2.72
2019-02-06T08:04:03.586Z,2.74
2019-02-06T08:05:09.104Z,2.72
2019-02-06T08:07:07.494Z,2.74
2019-02-06T08:08:13.016Z,2.71
2019-02-06T08:10:11.507Z,2.78
2019-02-06T08:11:16.929Z,2.85
2019-02-06T08:13:15.320Z,2.77
2019-02-06T08:14:20.939Z,2.85
2019-02-06T08:16:19.247Z,2.85
2019-02-06T08:17:24.759Z,3.00
2019-02-06T08:19:23.164Z,3.00
2019-02-06T08:20:28.680Z,3.13
2019-02-06T08:22:27.063Z,3.10
2019-02-06T08:23:32.589Z,3.05
2019-02-06T08:25:31.004Z,3.20
2019-02-06T08:26:36.534Z,3.20
2019-02-06T08:28:34.906Z,3.24
2019-02-06T08:29:40.419Z,3.21
2019-02-06T08:31:38.904Z,3.31
2019-02-06T08:32:44.334Z,3.35
2019-02-06T08:34:43.584Z,3.35
2019-02-06T08:35:49.098Z,3.36
2019-02-06T08:37:47.487Z,3.35
2019-02-06T08:38:55.560Z,3.33
2019-02-06T08:40:51.419Z,3.50
2019-02-06T08:41:56.961Z,3.45
2019-02-06T08:43:55.333Z,3.51
2019-02-06T08:45:00.846Z,3.45
2019-02-06T08:46:59.249Z,3.47
2019-02-06T08:48:04.778Z,3.47
2019-02-06T08:50:03.274Z,3.51
2019-02-06T08:51:08.695Z,3.57
2019-02-06T08:53:07.083Z,3.60
2019-02-06T08:54:12.611Z,3.57
2019-02-06T08:56:11.010Z,3.70
2019-02-06T08:57:16.525Z,3.68
2019-02-06T08:59:14.929Z,3.68
2019-02-06T09:00:20.450Z,3.68
2019-02-06T09:02:18.837Z,3.73
2019-02-06T09:03:24.361Z,3.76
2019-02-06T09:05:22.771Z,3.76
2019-02-06T09:06:28.280Z,3.69
2019-02-06T09:08:26.669Z,3.83
2019-02-06T09:09:32.195Z,3.91
2019-02-06T09:11:30.609Z,3.84
2019-02-06T09:12:36.119Z,3.96
2019-02-06T09:14:34.530Z,3.90
2019-02-06T09:15:40.046Z,3.93
2019-02-06T09:17:38.444Z,4.00
2019-02-06T09:18:43.968Z,3.97
2019-02-06T09:20:42.375Z,3.96
2019-02-06T09:21:47.886Z,3.94
2019-02-06T09:23:46.274Z,3.97
2019-02-06T09:24:51.801Z,3.93
2019-02-06T09:26:50.204Z,3.96
2019-02-06T09:27:55.733Z,3.91
2019-02-06T09:29:54.213Z,3.88
2019-02-06T09:30:59.636Z,3.94
2019-02-06T09:32:58.027Z,3.93
2019-02-06T09:34:03.554Z,4.00
2019-02-06T09:36:01.955Z,3.94
2019-02-06T09:37:07.472Z,3.96
2019-02-06T09:39:11.599Z,3.97
2019-02-06T09:40:11.389Z,3.98
2019-02-06T09:42:09.794Z,3.90
2019-02-06T09:43:15.312Z,3.98
2019-02-06T09:45:13.711Z,4.08
2019-02-06T09:46:19.226Z,4.05
2019-02-06T09:48:17.612Z,4.05
2019-02-06T09:49:24.126Z,4.02
2019-02-06T09:51:21.558Z,4.02
2019-02-06T09:52:28.898Z,4.02
2019-02-06T09:54:25.480Z,4.08
2019-02-06T09:55:31.007Z,4.08
2019-02-06T09:57:29.393Z,4.00
2019-02-06T09:58:34.918Z,4.00
2019-02-06T10:00:33.325Z,4.04
2019-02-06T10:01:38.844Z,4.02
2019-02-06T10:03:37.241Z,4.09
2019-02-06T10:04:42.769Z,4.12
2019-02-06T10:06:41.307Z,4.16
2019-02-06T10:07:46.710Z,4.15
2019-02-06T10:09:45.325Z,4.32
2019-02-06T10:10:50.633Z,4.30
2019-02-06T10:12:49.173Z,4.32
2019-02-06T10:13:54.598Z,4.32
2019-02-06T10:15:52.963Z,4.34
2019-02-06T10:16:58.482Z,4.51
2019-02-06T10:18:56.889Z,4.62
2019-02-06T10:20:02.439Z,4.52
2019-02-06T10:22:00.814Z,4.59
2019-02-06T10:23:06.327Z,4.51
2019-02-06T10:25:04.729Z,4.65
2019-02-06T10:26:10.248Z,4.67
2019-02-06T10:28:08.644Z,4.72
2019-02-06T10:29:14.167Z,4.80
2019-02-06T10:31:12.568Z,4.77
2019-02-06T10:32:18.100Z,4.77
2019-02-06T10:34:16.632Z,4.80
2019-02-06T10:35:22.129Z,4.80
2019-02-06T10:37:20.544Z,4.75
2019-02-06T10:38:26.077Z,4.88
2019-02-06T10:40:24.490Z,4.86
2019-02-06T10:41:30.030Z,4.94
2019-02-06T10:43:32.233Z,4.96
2019-02-06T10:44:33.941Z,4.89
2019-02-06T10:46:32.394Z,5.03
2019-02-06T10:47:37.923Z,5.03
2019-02-06T10:49:36.343Z,5.07
2019-02-06T10:50:41.897Z,5.04
2019-02-06T10:52:40.255Z,5.04
2019-02-06T10:53:45.760Z,5.13
2019-02-06T10:55:44.159Z,5.18
2019-02-06T10:56:49.701Z,5.18
2019-02-06T10:58:48.089Z,5.17
2019-02-06T10:59:53.619Z,5.12
2019-02-06T11:01:52.883Z,5.17
2019-02-06T11:02:58.388Z,5.17
2019-02-06T11:04:56.792Z,5.20
2019-02-06T11:06:02.315Z,5.22
2019-02-06T11:08:00.719Z,5.27
2019-02-06T11:09:06.236Z,5.30
2019-02-06T11:11:04.645Z,5.28
2019-02-06T11:12:10.163Z,5.28
2019-02-06T11:14:08.544Z,5.31
2019-02-06T11:15:14.078Z,5.39
2019-02-06T11:17:12.484Z,5.39
2019-02-06T11:18:17.994Z,5.33
2019-02-06T11:20:16.390Z,5.53
2019-02-06T11:21:21.922Z,5.39
2019-02-06T11:23:20.323Z,5.51
2019-02-06T11:24:26.901Z,5.48
2019-02-06T11:26:24.241Z,5.49
2019-02-06T11:27:29.758Z,5.54
2019-02-06T11:29:28.996Z,5.53
2019-02-06T11:30:34.528Z,5.60
2019-02-06T11:32:32.933Z,5.60
2019-02-06T11:33:38.447Z,5.63
2019-02-06T11:35:36.842Z,5.60
2019-02-06T11:36:42.373Z,5.61
2019-02-06T11:38:40.779Z,5.61
2019-02-06T11:39:57.281Z,5.71
2019-02-06T11:41:44.708Z,5.72
2019-02-06T11:42:50.216Z,5.64
2019-02-06T11:44:48.609Z,5.65
2019-02-06T11:45:54.140Z,5.74
2019-02-06T11:47:52.552Z,5.75
2019-02-06T11:48:58.062Z,5.78
2019-02-06T11:50:57.530Z,5.81
2019-02-06T11:52:03.060Z,5.83
2019-02-06T11:54:01.474Z,5.91
2019-02-06T11:55:08.638Z,5.91
2019-02-06T11:57:05.397Z,5.96
2019-02-06T11:58:10.908Z,5.94
2019-02-06T12:00:09.330Z,5.94
2019-02-06T12:01:14.846Z,5.94
2019-02-06T12:03:13.299Z,6.03
2019-02-06T12:04:18.808Z,5.97
2019-02-06T12:07:48.778Z,6.15
2019-02-06T12:08:54.269Z,6.19
2019-02-06T12:10:52.676Z,6.12
2019-02-06T12:11:58.213Z,6.19
2019-02-06T12:13:56.634Z,6.31
2019-02-06T12:15:02.128Z,6.19
2019-02-06T12:17:00.624Z,6.37
2019-02-06T12:18:06.066Z,6.34
2019-02-06T12:20:04.472Z,6.46
2019-02-06T12:21:09.996Z,6.46
2019-02-06T12:23:08.406Z,6.48
2019-02-06T12:24:13.921Z,6.48
2019-02-06T12:26:12.317Z,6.64
2019-02-06T12:27:17.846Z,6.66
2019-02-06T12:29:16.257Z,6.79
2019-02-06T12:30:21.773Z,6.73
2019-02-06T12:32:20.180Z,6.76
2019-02-06T12:33:25.696Z,6.76
2019-02-06T12:35:24.095Z,6.87
2019-02-06T12:36:29.625Z,6.85
2019-02-06T12:38:28.036Z,6.94
2019-02-06T12:39:33.543Z,6.95
2019-02-06T12:41:31.938Z,6.91
2019-02-06T12:42:37.484Z,6.91
2019-02-06T12:44:36.103Z,6.92
2019-02-06T12:45:42.119Z,6.91
2019-02-06T12:47:40.064Z,6.94
2019-02-06T12:48:45.567Z,6.92
2019-02-06T12:50:43.991Z,6.95
2019-02-06T12:51:52.273Z,6.84
2019-02-06T12:53:47.911Z,6.76
2019-02-06T12:54:53.416Z,6.76
2019-02-06T12:56:51.832Z,6.66
2019-02-06T12:57:57.362Z,6.61
2019-02-06T12:59:55.767Z,6.52
2019-02-06T13:01:01.283Z,6.44
2019-02-06T13:03:00.406Z,6.41
2019-02-06T13:04:05.219Z,6.46
2019-02-06T13:06:03.614Z,6.41
2019-02-06T13:07:09.151Z,6.34
2019-02-06T13:09:07.551Z,6.41
2019-02-06T13:10:13.068Z,6.41
2019-02-06T13:12:11.465Z,6.38
2019-02-06T13:13:17.001Z,6.31
2019-02-06T13:15:15.405Z,6.34
2019-02-06T13:16:20.920Z,6.36
2019-02-06T13:18:19.329Z,6.31
2019-02-06T13:19:24.844Z,6.30
2019-02-06T13:21:23.250Z,6.37
2019-02-06T13:22:28.776Z,6.43
2019-02-06T13:24:27.183Z,6.38
2019-02-06T13:25:32.699Z,6.40
2019-02-06T13:27:31.104Z,6.36
2019-02-06T13:28:36.618Z,6.27
2019-02-06T13:30:35.018Z,6.33
2019-02-06T13:31:40.544Z,6.31
2019-02-06T13:33:38.954Z,6.30
2019-02-06T13:34:44.472Z,6.31
2019-02-06T13:36:42.862Z,6.18
2019-02-06T13:37:48.392Z,6.18
2019-02-06T13:39:46.798Z,6.18
2019-02-06T13:40:52.316Z,6.27
2019-02-06T13:42:50.724Z,6.22
2019-02-06T13:43:56.242Z,6.21
2019-02-06T13:45:54.634Z,6.27
2019-02-06T13:47:00.161Z,6.27
2019-02-06T13:48:58.575Z,6.28
2019-02-06T13:50:04.090Z,6.31
2019-02-06T13:52:02.484Z,6.33
2019-02-06T13:53:08.014Z,6.34
2019-02-06T13:55:06.509Z,6.34
2019-02-06T13:56:11.941Z,6.33
2019-02-06T13:58:19.780Z,6.36
2019-02-06T13:59:15.862Z,6.33
2019-02-06T14:01:25.133Z,6.33
2019-02-06T14:02:19.799Z,6.30
2019-02-06T14:04:18.207Z,6.30
2019-02-06T14:05:23.724Z,6.28
2019-02-06T14:07:22.132Z,6.30
2019-02-06T14:08:27.659Z,6.34
2019-02-06T14:10:26.066Z,6.28
2019-02-06T14:11:31.587Z,6.22
2019-02-06T14:13:29.994Z,6.18
2019-02-06T14:14:35.513Z,6.30
2019-02-06T14:16:33.912Z,6.28
2019-02-06T14:17:39.439Z,6.18
2019-02-06T14:19:37.846Z,6.17
2019-02-06T14:20:43.362Z,6.28
2019-02-06T14:22:41.765Z,6.19
2019-02-06T14:23:48.606Z,6.19
2019-02-06T14:25:45.702Z,6.21
2019-02-06T14:26:51.219Z,6.11
2019-02-06T14:28:49.633Z,6.14
2019-02-06T14:29:55.142Z,6.21
2019-02-06T14:31:53.541Z,6.17
2019-02-06T14:32:59.067Z,6.19
2019-02-06T14:34:57.476Z,6.15
2019-02-06T14:36:02.993Z,6.25
2019-02-06T14:38:01.390Z,6.08
2019-02-06T14:39:06.916Z,6.18
2019-02-06T14:41:08.591Z,6.25
2019-02-06T14:42:10.840Z,6.14
2019-02-06T14:44:09.239Z,6.15
2019-02-06T14:45:14.765Z,6.11
2019-02-06T14:47:13.175Z,6.28
2019-02-06T14:48:18.692Z,6.19
2019-02-06T14:50:17.080Z,6.19
2019-02-06T14:51:22.609Z,6.18
2019-02-06T14:53:21.052Z,6.19
2019-02-06T14:54:26.568Z,6.11
2019-02-06T14:56:24.957Z,6.14
2019-02-06T14:57:30.490Z,6.19
2019-02-06T14:59:28.921Z,6.25
2019-02-06T15:00:34.416Z,6.17
2019-02-06T15:02:32.807Z,6.17
2019-02-06T15:03:38.338Z,6.17
2019-02-06T15:05:36.747Z,6.17
2019-02-06T15:06:42.259Z,6.18
2019-02-06T15:08:40.653Z,6.17
2019-02-06T15:09:46.180Z,6.19
2019-02-06T15:11:44.583Z,6.25
2019-02-06T15:12:50.102Z,6.14
2019-02-06T15:14:48.521Z,6.18
2019-02-06T15:15:54.025Z,6.21
2019-02-06T15:17:52.417Z,6.14
2019-02-06T15:18:57.949Z,6.18
2019-02-06T15:20:56.373Z,6.12
2019-02-06T15:22:01.867Z,6.12
2019-02-06T15:24:00.259Z,6.17
2019-02-06T15:25:05.791Z,6.14
2019-02-06T15:27:04.205Z,6.14
2019-02-06T15:28:09.712Z,6.03
2019-02-06T15:30:08.103Z,6.04
2019-02-06T15:31:13.637Z,6.03
2019-02-06T15:33:12.057Z,5.97
2019-02-06T15:34:17.552Z,5.97
2019-02-06T15:36:15.947Z,5.97
2019-02-06T15:37:21.478Z,6.04
2019-02-06T15:39:19.880Z,6.03
2019-02-06T15:40:25.416Z,6.01
2019-02-06T15:42:23.791Z,6.04
2019-02-06T15:43:29.317Z,6.04
2019-02-06T15:45:27.729Z,6.04
2019-02-06T15:46:33.238Z,6.01
2019-02-06T15:48:31.648Z,5.96
2019-02-06T15:49:37.160Z,5.96
2019-02-06T15:51:35.801Z,5.94
2019-02-06T15:52:41.330Z,5.93
2019-02-06T15:54:39.745Z,5.93
2019-02-06T15:55:45.254Z,5.91
2019-02-06T15:57:43.653Z,5.89
2019-02-06T15:58:49.177Z,5.99
2019-02-06T16:00:47.576Z,5.85
2019-02-06T16:01:53.151Z,5.89
2019-02-06T16:03:51.486Z,5.90
2019-02-06T16:04:57.564Z,5.90
2019-02-06T16:06:55.443Z,5.76
2019-02-06T16:08:00.939Z,5.82
2019-02-06T16:09:59.330Z,5.86
2019-02-06T16:11:04.864Z,5.82
2019-02-06T16:13:04.112Z,5.81
2019-02-06T16:14:09.630Z,5.82
2019-02-06T16:16:08.037Z,5.85
2019-02-06T16:17:13.556Z,5.85
2019-02-06T16:19:11.974Z,5.85
2019-02-06T16:20:17.472Z,5.89
2019-02-06T16:22:15.876Z,5.90
2019-02-06T16:23:21.494Z,5.76
2019-02-06T16:25:19.812Z,5.83
2019-02-06T16:26:25.318Z,5.79
2019-02-06T16:28:24.209Z,5.75
2019-02-06T16:29:29.736Z,5.74
2019-02-06T16:31:28.150Z,5.67
2019-02-06T16:32:33.659Z,5.78
2019-02-06T16:34:32.061Z,5.68
2019-02-06T16:35:37.635Z,5.64
2019-02-06T16:37:36.237Z,5.65
2019-02-06T16:38:41.532Z,5.65
2019-02-06T16:40:39.929Z,5.71
2019-02-06T16:41:53.152Z,5.68
2019-02-06T16:43:43.870Z,5.67
2019-02-06T16:44:49.384Z,5.74
2019-02-06T16:46:47.780Z,5.72
2019-02-06T16:47:53.304Z,5.67
2019-02-06T16:49:51.711Z,5.72
2019-02-06T16:50:57.223Z,5.71
2019-02-06T16:52:55.622Z,5.71
2019-02-06T16:54:01.150Z,5.61
2019-02-06T16:55:59.556Z,5.68
2019-02-06T16:57:05.067Z,5.71
2019-02-06T16:59:04.312Z,5.72
2019-02-06T17:00:09.842Z,5.74
2019-02-06T17:02:08.261Z,5.74
2019-02-06T17:03:13.765Z,5.74
2019-02-06T17:05:12.155Z,5.75
2019-02-06T17:06:17.686Z,5.65
2019-02-06T17:08:16.128Z,5.67
2019-02-06T17:09:23.131Z,5.76
2019-02-06T17:11:20.032Z,5.67
2019-02-06T17:12:25.558Z,5.71
2019-02-06T17:14:26.093Z,5.75
2019-02-06T17:15:29.478Z,5.78
2019-02-06T17:17:27.873Z,5.75
2019-02-06T17:18:33.402Z,5.65
2019-02-06T17:20:31.823Z,5.72
2019-02-06T17:21:37.325Z,5.75
2019-02-06T17:23:35.720Z,5.75
2019-02-06T17:24:41.248Z,5.68
2019-02-06T17:26:39.654Z,5.68
2019-02-06T17:27:45.166Z,5.72
2019-02-06T17:29:43.566Z,5.71
2019-02-06T17:30:49.090Z,5.71
2019-02-06T17:32:47.518Z,5.68
2019-02-06T17:33:53.014Z,5.67
2019-02-06T17:35:51.406Z,5.76
2019-02-06T17:36:56.930Z,5.68
2019-02-06T17:38:55.347Z,5.68
2019-02-06T17:40:00.863Z,5.68
2019-02-06T17:41:59.251Z,5.72
2019-02-06T17:43:04.778Z,5.67
2019-02-06T17:45:03.228Z,5.74
2019-02-06T17:46:08.735Z,5.68
2019-02-06T17:48:07.625Z,5.71
2019-02-06T17:49:13.146Z,5.79
2019-02-06T17:51:11.562Z,5.68
2019-02-06T17:52:17.068Z,5.61
2019-02-06T17:54:15.463Z,5.71
2019-02-06T17:55:20.990Z,5.67
2019-02-06T17:57:19.410Z,5.74
2019-02-06T17:58:24.913Z,5.78
2019-02-06T18:00:23.308Z,5.67
2019-02-06T18:01:28.837Z,5.67
2019-02-06T18:03:27.247Z,5.72
2019-02-06T18:04:32.767Z,5.61
2019-02-06T18:06:31.232Z,5.76
2019-02-06T18:07:36.723Z,5.75
2019-02-06T18:09:35.187Z,5.63
2019-02-06T18:10:40.645Z,5.68
2019-02-06T18:12:39.041Z,5.76
2019-02-06T18:13:44.570Z,5.71
2019-02-06T18:15:43.010Z,5.64
2019-02-06T18:16:48.521Z,5.67
2019-02-06T18:18:46.899Z,5.72
2019-02-06T18:19:52.802Z,5.68
2019-02-06T18:21:52.188Z,5.67
2019-02-06T18:22:57.693Z,5.67
2019-02-06T18:24:56.103Z,5.74
2019-02-06T18:26:01.630Z,5.71
2019-02-06T18:28:00.047Z,5.74
2019-02-06T18:29:05.552Z,5.63
2019-02-06T18:31:03.947Z,5.65
2019-02-06T18:32:09.471Z,5.74
2019-02-06T18:34:07.890Z,5.64
2019-02-06T18:35:13.404Z,5.63
2019-02-06T18:37:11.789Z,5.72
2019-02-06T18:38:17.315Z,5.71
2019-02-06T18:40:16.267Z,5.72
2019-02-06T18:41:21.734Z,5.79
2019-02-06T18:43:20.618Z,5.74
2019-02-06T18:44:26.144Z,5.76
2019-02-06T18:46:25.061Z,5.63
2019-02-06T18:47:30.574Z,5.68
2019-02-06T18:49:29.454Z,5.68
2019-02-06T18:50:34.989Z,5.65
2019-02-06T18:52:33.402Z,5.67
2019-02-06T18:53:38.919Z,5.71
2019-02-06T18:55:37.316Z,5.65
2019-02-06T18:56:42.839Z,5.72
2019-02-06T18:58:41.746Z,5.71
2019-02-06T18:59:47.295Z,5.74
2019-02-06T19:01:45.671Z,5.68
2019-02-06T19:02:51.219Z,5.71
2019-02-06T19:04:49.596Z,5.71
2019-02-06T19:05:55.108Z,5.72
2019-02-06T19:07:53.512Z,5.68
2019-02-06T19:08:59.033Z,5.65
2019-02-06T19:10:57.933Z,5.72
2019-02-06T19:12:03.533Z,5.72
2019-02-06T19:14:01.856Z,5.76
2019-02-06T19:15:07.375Z,5.65
2019-02-06T19:17:05.760Z,5.74
2019-02-06T19:18:11.289Z,5.75
2019-02-06T19:20:09.697Z,5.74
2019-02-06T19:21:15.210Z,5.72
2019-02-06T19:23:13.603Z,5.67
2019-02-06T19:24:19.130Z,5.67
2019-02-06T19:26:17.532Z,5.68
2019-02-06T19:27:23.044Z,5.68
2019-02-06T19:29:21.941Z,5.63
2019-02-06T19:30:27.466Z,5.71
2019-02-06T19:32:25.883Z,5.65
2019-02-06T19:33:31.390Z,5.71
2019-02-06T19:35:29.785Z,5.64
2019-02-06T19:36:35.314Z,5.64
2019-02-06T19:38:33.732Z,5.74
2019-02-06T19:39:39.236Z,5.68
2019-02-06T19:41:37.627Z,5.78
2019-02-06T19:42:43.158Z,5.65
2019-02-06T19:44:41.572Z,5.67
2019-02-06T19:45:47.081Z,5.72
2019-02-06T19:47:45.491Z,5.64
2019-02-06T19:48:51.024Z,5.68
2019-02-06T19:50:49.407Z,5.76
2019-02-06T19:51:54.920Z,5.71
2019-02-06T19:53:53.313Z,5.71
2019-02-06T19:54:58.846Z,5.71
2019-02-06T19:56:57.257Z,5.65
2019-02-06T19:58:02.765Z,5.68
2019-02-06T20:00:01.163Z,5.67
2019-02-06T20:01:06.688Z,5.71
2019-02-06T20:03:08.103Z,5.65
2019-02-06T20:04:10.616Z,5.65
2019-02-06T20:06:09.044Z,5.75
2019-02-06T20:07:14.573Z,5.68
2019-02-06T20:09:12.990Z,5.71
2019-02-06T20:10:18.500Z,5.74
2019-02-06T20:12:16.897Z,5.75
2019-02-06T20:13:22.426Z,5.64
2019-02-06T20:15:20.841Z,5.68
2019-02-06T20:16:26.351Z,5.63
2019-02-06T20:18:24.748Z,5.72
2019-02-06T20:19:30.281Z,5.72
2019-02-06T20:21:28.712Z,5.75
2019-02-06T20:22:34.207Z,5.68
2019-02-06T20:24:32.603Z,5.75
2019-02-06T20:25:38.133Z,5.67
2019-02-06T20:27:36.539Z,5.74